Time;durP1;ratioP1;P1;durP2;ratioP2;P2;SDS_P1;SDS_P2;PMS_P1;PMS_P2;Temp;Humidity;BMP_temperature;BMP_pressure;BME280_temperature;BME280_humidity;BME280_pressure;Samples;Min_cycle;Max_cycle;Signal;HPM_P1;HPM_P2
2021/06/24 21:11:57;;;;;;;25.33;6.80;;;;;;;30.94;43.34;99440.50;4482812;27;20145;-86
2021/06/24 21:14:25;;;;;;;24.92;7.05;;;;;;;30.88;43.59;99438.31;4382083;32;33853;-86
2021/06/24 21:16:52;;;;;;;32.60;6.57;;;;;;;30.83;43.65;99435.22;4381923;32;35766;-86
2021/06/24 21:19:20;;;;;;;30.40;7.43;;;;;;;30.81;43.63;99427.28;4370550;32;34867;-86
2021/06/24 21:21:48;;;;;;;30.58;6.65;;;;;;;30.78;43.59;99422.19;4393935;32;33381;-86
2021/06/24 21:24:16;;;;;;;23.62;6.43;;;;;;;30.78;43.71;99422.19;4381614;32;34166;-87
2021/06/24 21:26:43;;;;;;;27.37;6.25;;;;;;;30.80;43.67;99430.97;4381127;32;34494;-87
2021/06/24 21:29:14;;;;;;;31.67;6.78;;;;;;;30.73;43.86;99426.28;4394420;32;33984;-87
2021/06/24 21:31:42;;;;;;;28.70;6.90;;;;;;;30.76;43.84;99423.34;4394897;32;33862;-87
2021/06/24 21:34:09;;;;;;;30.77;6.40;;;;;;;30.70;44.23;99410.44;4394842;32;34166;-86
2021/06/24 21:36:37;;;;;;;30.92;6.15;;;;;;;30.64;44.27;99414.50;4395558;32;34828;-87
2021/06/24 21:39:05;;;;;;;25.70;6.18;;;;;;;30.61;44.35;99409.44;4381463;32;33854;-87
2021/06/24 21:41:36;;;;;;;29.08;6.70;;;;;;;30.57;44.47;99413.38;4381755;32;32831;-87
2021/06/24 21:44:04;;;;;;;34.63;6.90;;;;;;;30.53;44.67;99408.41;4394687;32;33775;-87
2021/06/24 21:46:32;;;;;;;33.25;6.65;;;;;;;30.45;44.84;99403.72;4382101;32;34098;-87
2021/06/24 21:49:00;;;;;;;35.53;7.35;;;;;;;30.38;44.98;99407.09;4382291;32;34369;-87
2021/06/24 21:51:29;;;;;;;24.35;6.47;;;;;;;30.35;45.06;99404.66;4382477;32;33329;-88
2021/06/24 21:53:56;;;;;;;26.15;6.87;;;;;;;30.25;45.25;99401.91;4394186;32;34113;-87
2021/06/24 21:56:24;;;;;;;25.17;6.12;;;;;;;30.29;45.12;99399.78;4382255;32;34648;-87
2021/06/24 21:58:52;;;;;;;29.85;6.80;;;;;;;30.19;45.50;99401.59;4381559;32;33633;-85
2021/06/24 22:01:19;;;;;;;25.65;6.62;;;;;;;30.15;45.37;99404.53;4407909;32;34413;-85
2021/06/24 22:03:49;;;;;;;28.90;6.07;;;;;;;30.15;45.46;99414.41;4407922;32;33947;-85
2021/06/24 22:06:17;;;;;;;37.80;7.43;;;;;;;30.19;45.60;99420.38;4381452;32;33922;-86
2021/06/24 22:08:44;;;;;;;27.05;6.75;;;;;;;30.15;46.11;99420.63;4381705;32;34010;-87
2021/06/24 22:11:12;;;;;;;34.00;7.75;;;;;;;30.17;46.14;99429.37;4382027;32;34754;-87
2021/06/24 22:13:40;;;;;;;25.08;7.37;;;;;;;30.19;46.07;99434.59;4381422;32;34854;-87
2021/06/24 22:16:08;;;;;;;29.02;6.60;;;;;;;30.16;46.16;99434.91;4381954;32;34298;-87
2021/06/24 22:18:38;;;;;;;29.42;6.82;;;;;;;30.07;46.40;99430.34;4394024;32;33849;-87
2021/06/24 22:21:05;;;;;;;27.08;6.68;;;;;;;29.97;46.32;99424.91;4395033;32;33578;-87
2021/06/24 22:23:33;;;;;;;29.37;6.95;;;;;;;30.01;46.12;99431.69;4394094;32;33794;-88
2021/06/24 22:26:01;;;;;;;30.77;6.62;;;;;;;30.00;45.88;99439.88;4394087;32;34129;-87
2021/06/24 22:28:28;;;;;;;36.08;7.72;;;;;;;29.93;46.22;99442.22;4394754;32;34313;-87
2021/06/24 22:30:56;;;;;;;25.08;5.82;;;;;;;29.98;46.19;99441.81;4382704;32;33217;-87
2021/06/24 22:33:24;;;;;;;32.92;7.62;;;;;;;29.92;46.23;99443.22;4381760;32;33335;-87
2021/06/24 22:35:52;;;;;;;33.10;6.87;;;;;;;29.90;46.23;99445.19;4369240;32;35035;-87
2021/06/24 22:38:20;;;;;;;29.55;6.55;;;;;;;29.84;46.37;99445.69;4381814;32;33630;-87
2021/06/24 22:40:48;;;;;;;31.98;6.60;;;;;;;29.83;46.27;99446.69;4394168;32;33440;-87
2021/06/24 22:43:15;;;;;;;32.67;7.62;;;;;;;29.75;46.28;99450.94;4393958;32;35047;-87
2021/06/24 22:45:43;;;;;;;31.98;6.97;;;;;;;29.76;46.39;99447.28;4393601;32;35938;-87
2021/06/24 22:48:11;;;;;;;34.20;7.15;;;;;;;29.76;46.60;99447.28;4393922;32;33944;-86
2021/06/24 22:50:38;;;;;;;31.12;7.15;;;;;;;29.70;46.65;99443.28;4393833;32;33383;-86
2021/06/24 22:53:06;;;;;;;30.92;6.95;;;;;;;29.71;46.96;99445.00;4394337;32;33835;-86
2021/06/24 22:55:41;;;;;;;27.05;6.78;;;;;;;29.65;47.22;99445.50;4407605;32;34390;-86
2021/06/24 22:58:09;;;;;;;26.15;6.93;;;;;;;29.58;47.33;99438.97;4382105;32;33978;-86
2021/06/24 23:00:38;;;;;;;22.58;6.07;;;;;;;29.52;47.81;99439.47;4393746;32;33419;-86
2021/06/24 23:03:05;;;;;;;24.15;7.70;;;;;;;29.48;47.84;99446.06;4407925;32;35044;-87
2021/06/24 23:05:33;;;;;;;28.58;7.68;;;;;;;29.44;47.89;99458.00;4394477;32;35810;-87
2021/06/24 23:08:01;;;;;;;27.42;6.30;;;;;;;29.38;47.88;99451.31;4381491;32;34787;-87
2021/06/24 23:10:30;;;;;;;26.42;7.18;;;;;;;29.36;47.87;99452.44;4380905;32;34464;-87
2021/06/24 23:12:58;;;;;;;31.02;6.72;;;;;;;29.33;48.10;99458.06;4381012;32;34676;-87
2021/06/24 23:15:27;;;;;;;31.30;7.60;;;;;;;29.32;48.15;99464.38;4380361;32;33804;-87
2021/06/24 23:17:55;;;;;;;28.38;7.05;;;;;;;29.35;48.01;99461.47;4382966;32;34447;-87
2021/06/24 23:20:22;;;;;;;27.17;6.28;;;;;;;29.25;48.06;99457.81;4383574;32;33392;-87
2021/06/24 23:22:50;;;;;;;34.72;7.78;;;;;;;29.19;48.08;99447.63;4383353;32;34059;-87
2021/06/24 23:25:18;;;;;;;25.40;7.32;;;;;;;29.21;47.77;99446.53;4395094;32;35707;-87
2021/06/24 23:27:48;;;;;;;23.75;6.50;;;;;;;29.15;47.75;99449.66;4395601;32;34933;-87
2021/06/24 23:30:17;;;;;;;26.30;7.00;;;;;;;29.17;47.64;99454.91;4396175;32;34704;-86
2021/06/24 23:32:45;;;;;;;28.55;6.78;;;;;;;29.16;47.73;99448.69;4383401;32;33706;-86
2021/06/24 23:35:13;;;;;;;31.50;7.53;;;;;;;29.08;48.12;99450.28;4383283;32;33827;-86
2021/06/24 23:37:42;;;;;;;28.90;7.15;;;;;;;29.03;48.24;99447.97;4395573;32;34362;-86
2021/06/24 23:40:10;;;;;;;33.13;6.75;;;;;;;28.92;48.47;99457.88;4382411;32;33196;-86
2021/06/24 23:42:37;;;;;;;32.30;7.12;;;;;;;28.97;48.24;99459.22;4395296;32;35201;-86
2021/06/24 23:45:06;;;;;;;29.58;7.85;;;;;;;28.97;47.83;99464.56;4395427;32;34461;-87
2021/06/24 23:47:34;;;;;;;29.90;6.93;;;;;;;28.90;47.82;99463.34;4382791;32;34662;-87
2021/06/24 23:50:04;;;;;;;36.58;7.18;;;;;;;28.96;47.51;99461.97;4409278;32;33508;-87
2021/06/24 23:52:32;;;;;;;30.75;7.37;;;;;;;28.85;48.02;99465.53;4395167;32;33817;-87
2021/06/24 23:55:00;;;;;;;31.30;7.97;;;;;;;28.93;47.88;99472.97;4395177;32;34760;-87
2021/06/24 23:57:28;;;;;;;41.60;6.57;;;;;;;28.91;47.89;99473.06;4382674;32;34115;-87
2021/06/24 23:59:56;;;;;;;26.17;6.93;;;;;;;28.86;48.00;99464.56;4395821;32;34332;-87
